createdAt,value
2023-03-13T00:01:13.992Z,99.90
2023-03-13T00:03:42.157Z,99.90
2023-03-13T00:06:11.832Z,99.90
2023-03-13T00:08:40.150Z,99.90
2023-03-13T00:11:10.091Z,99.90
2023-03-13T00:13:38.346Z,99.90
2023-03-13T00:16:08.449Z,99.90
2023-03-13T00:18:37.123Z,99.90
2023-03-13T00:21:06.965Z,99.90
2023-03-13T00:23:37.683Z,99.90
2023-03-13T00:26:07.941Z,99.90
2023-03-13T00:28:36.792Z,99.90
2023-03-13T10:15:50.707Z,79.70
2023-03-13T10:18:21.686Z,79.30
2023-03-13T10:32:06.320Z,77.80
2023-03-13T10:34:50.449Z,78.10
2023-03-13T10:37:22.688Z,75.00
2023-03-13T10:42:29.310Z,77.90
2023-03-13T10:45:00.273Z,78.00
2023-03-13T10:47:34.838Z,79.20
2023-03-13T10:50:04.140Z,79.10
2023-03-13T10:52:35.609Z,79.10
2023-03-13T10:55:05.937Z,80.30
2023-03-13T10:57:36.232Z,80.10
2023-03-13T11:00:26.840Z,81.00
2023-03-13T11:02:56.529Z,81.00
2023-03-13T11:05:45.646Z,77.30
2023-03-13T11:08:21.202Z,77.60
2023-03-13T11:10:55.800Z,76.70
2023-03-13T11:13:42.007Z,78.40
2023-03-13T11:16:20.522Z,76.20
2023-03-13T11:19:21.420Z,76.60
2023-03-13T11:22:02.036Z,79.70
2023-03-13T11:24:39.831Z,77.00
2023-03-13T11:27:16.835Z,75.40
2023-03-13T11:29:55.964Z,74.40
2023-03-13T11:32:28.409Z,76.40
2023-03-13T11:35:01.544Z,77.90
2023-03-13T11:37:34.886Z,79.90
2023-03-13T11:40:16.233Z,81.60
2023-03-13T11:42:55.092Z,83.50
2023-03-13T11:45:48.747Z,86.10
2023-03-13T11:48:25.341Z,86.30
2023-03-13T11:50:59.905Z,87.60
2023-03-13T11:53:43.640Z,88.70
2023-03-13T11:56:16.978Z,89.40
2023-03-13T11:59:21.652Z,88.70
2023-03-13T12:01:54.797Z,88.80
2023-03-13T12:04:27.973Z,90.00
2023-03-13T12:07:04.827Z,89.90
2023-03-13T12:09:35.849Z,90.20
2023-03-13T12:12:11.872Z,90.50
2023-03-13T12:14:45.615Z,90.30
2023-03-13T12:17:18.322Z,90.20
2023-03-13T12:19:52.293Z,90.40
2023-03-13T12:22:28.298Z,90.80
2023-03-13T12:25:03.742Z,90.10
2023-03-13T12:27:38.168Z,90.20
2023-03-13T12:30:15.729Z,90.50
2023-03-13T12:32:50.760Z,90.60
2023-03-13T12:35:22.872Z,90.40
2023-03-13T12:37:59.089Z,90.60
2023-03-13T12:40:32.702Z,90.60
2023-03-13T12:43:05.674Z,90.00
2023-03-13T12:45:35.136Z,90.60
2023-03-13T12:48:40.820Z,90.70
2023-03-13T12:51:20.548Z,90.80
2023-03-13T12:54:19.896Z,90.90
2023-03-13T12:57:03.000Z,90.70
2023-03-13T12:59:36.054Z,91.00
2023-03-13T13:02:14.818Z,91.50
2023-03-13T13:04:46.791Z,92.00
2023-03-13T13:07:24.805Z,91.70
2023-03-13T13:10:15.657Z,92.20
2023-03-13T13:12:44.884Z,91.80
2023-03-13T13:15:20.741Z,91.80
2023-03-13T13:18:15.586Z,91.70
2023-03-13T13:20:49.632Z,91.80
2023-03-13T13:23:37.554Z,91.80
2023-03-13T13:26:48.562Z,92.10
2023-03-13T13:29:59.438Z,91.90
2023-03-13T13:32:41.172Z,92.20
2023-03-13T13:35:34.715Z,92.30
2023-03-13T13:38:39.843Z,92.20
2023-03-13T13:41:40.301Z,92.30
2023-03-13T13:44:27.230Z,92.20
2023-03-13T13:46:57.416Z,92.50
2023-03-13T13:49:32.894Z,92.10
2023-03-13T13:52:36.162Z,92.30
2023-03-13T13:55:20.733Z,92.00
2023-03-13T13:57:51.262Z,92.00
2023-03-13T14:00:24.537Z,92.30
2023-03-13T14:02:53.695Z,92.70
2023-03-13T14:05:26.978Z,92.70
2023-03-13T14:08:01.581Z,92.70
2023-03-13T14:10:39.584Z,92.70
2023-03-13T14:13:16.579Z,92.80
2023-03-13T14:15:46.378Z,92.30
2023-03-13T14:18:21.922Z,92.30
2023-03-13T14:21:00.137Z,92.20
2023-03-13T14:23:47.347Z,92.20
2023-03-13T14:26:18.682Z,92.50
2023-03-13T14:28:48.560Z,92.60
2023-03-13T14:31:27.912Z,92.60
2023-03-13T14:33:57.311Z,92.90
2023-03-13T14:36:27.305Z,92.70
2023-03-13T14:38:57.393Z,92.50
2023-03-13T14:41:30.452Z,92.10
2023-03-13T14:44:06.347Z,92.30
2023-03-13T14:46:36.368Z,92.30
2023-03-13T14:49:10.195Z,92.50
2023-03-13T14:51:41.235Z,92.50
2023-03-13T14:54:26.595Z,92.70
2023-03-13T14:57:04.911Z,92.90
2023-03-13T14:59:33.123Z,92.70
2023-03-13T15:02:02.575Z,92.90
2023-03-13T15:04:50.281Z,92.90
2023-03-13T15:07:20.108Z,92.80
2023-03-13T15:09:49.487Z,92.60
2023-03-13T15:12:19.569Z,92.60
2023-03-13T15:14:49.138Z,92.60
2023-03-13T15:17:20.301Z,92.60
2023-03-13T15:19:53.652Z,92.60
2023-03-13T15:22:28.018Z,92.60
2023-03-13T15:25:05.681Z,92.50
2023-03-13T15:27:35.041Z,92.50
2023-03-13T15:30:03.246Z,92.70
2023-03-13T15:32:34.833Z,92.90
2023-03-13T15:35:03.769Z,93.00
2023-03-13T15:37:33.323Z,92.90
2023-03-13T15:40:02.802Z,93.00
2023-03-13T15:42:30.766Z,92.90
2023-03-13T15:44:58.878Z,92.90
2023-03-13T15:47:27.714Z,92.90
2023-03-13T15:49:55.650Z,93.00
2023-03-13T15:52:24.182Z,93.00
2023-03-13T15:54:53.793Z,93.20
2023-03-13T15:57:24.077Z,93.20
2023-03-13T15:59:52.809Z,93.30
2023-03-13T16:02:23.161Z,93.40
2023-03-13T16:04:52.015Z,93.50
2023-03-13T16:07:21.864Z,93.60
2023-03-13T16:09:49.986Z,93.50
2023-03-13T16:12:19.318Z,93.30
2023-03-13T16:14:47.270Z,93.40
2023-03-13T16:17:17.900Z,93.40
2023-03-13T16:19:46.597Z,93.40
2023-03-13T16:22:14.778Z,93.40
2023-03-13T16:24:43.475Z,93.60
2023-03-13T16:27:15.712Z,93.70
2023-03-13T16:29:45.959Z,93.70
2023-03-13T16:32:16.126Z,93.90
2023-03-13T16:34:44.248Z,94.00
2023-03-13T16:37:16.517Z,94.10
2023-03-13T16:39:45.715Z,94.20
2023-03-13T16:42:14.246Z,94.20
2023-03-13T16:44:42.349Z,94.20
2023-03-13T16:47:20.395Z,94.30
2023-03-13T16:49:48.431Z,94.40
2023-03-13T16:52:17.335Z,94.50
2023-03-13T16:54:46.107Z,94.50
2023-03-13T16:57:16.164Z,94.60
2023-03-13T16:59:44.278Z,94.60
2023-03-13T17:02:18.769Z,94.90
2023-03-13T17:04:48.210Z,95.20
2023-03-13T17:07:20.899Z,95.30
2023-03-13T17:09:49.115Z,95.60
2023-03-13T17:12:17.673Z,95.90
2023-03-13T17:14:46.105Z,96.30
2023-03-13T17:17:17.420Z,96.60
2023-03-13T17:19:45.584Z,97.20
2023-03-13T17:22:14.528Z,97.20
2023-03-13T17:24:44.007Z,97.40
2023-03-13T17:27:13.697Z,97.50
2023-03-13T17:29:42.188Z,97.50
2023-03-13T17:32:11.411Z,97.60
2023-03-13T17:34:41.663Z,97.80
2023-03-13T17:37:16.347Z,97.60
2023-03-13T17:39:44.959Z,97.80
2023-03-13T17:42:13.511Z,97.80
2023-03-13T17:44:42.331Z,97.80
2023-03-13T17:47:15.797Z,97.40
2023-03-13T17:49:45.767Z,97.80
2023-03-13T17:52:15.065Z,97.60
2023-03-13T17:54:43.780Z,97.70
2023-03-13T17:57:16.381Z,97.60
2023-03-13T17:59:45.052Z,97.40
2023-03-13T18:02:14.911Z,97.60
2023-03-13T18:04:43.884Z,97.60
2023-03-13T18:07:21.638Z,97.50
2023-03-13T18:09:49.665Z,97.20
2023-03-13T18:12:18.406Z,97.20
2023-03-13T18:14:46.725Z,97.10
2023-03-13T18:17:17.765Z,97.20
2023-03-13T18:19:46.063Z,97.10
2023-03-13T18:22:17.417Z,97.10
2023-03-13T18:24:46.286Z,97.30
2023-03-13T18:27:15.673Z,97.10
2023-03-13T18:29:43.984Z,97.10
2023-03-13T18:32:15.954Z,97.00
2023-03-13T18:34:44.691Z,96.90
2023-03-13T18:37:21.661Z,96.70
2023-03-13T18:39:51.324Z,96.60
2023-03-13T18:42:19.641Z,96.70
2023-03-13T18:44:47.841Z,96.50
2023-03-13T18:47:17.855Z,96.50
2023-03-13T18:49:46.946Z,96.70
2023-03-13T18:52:17.377Z,96.50
2023-03-13T18:54:45.994Z,96.60
2023-03-13T18:57:15.774Z,96.40
2023-03-13T18:59:44.437Z,96.30
2023-03-13T19:02:15.102Z,96.10
2023-03-13T19:04:43.530Z,96.00
2023-03-13T19:07:14.793Z,96.10
2023-03-13T19:09:46.776Z,96.00
2023-03-13T19:12:16.731Z,96.00
2023-03-13T19:14:44.982Z,96.00
2023-03-13T19:17:24.033Z,96.00
2023-03-13T19:19:57.124Z,96.00
2023-03-13T19:22:25.993Z,96.10
2023-03-13T19:24:55.778Z,96.30
2023-03-13T19:27:23.927Z,96.00
2023-03-13T19:29:51.977Z,96.20
2023-03-13T19:32:20.728Z,96.30
2023-03-13T19:34:48.665Z,96.30
2023-03-13T19:37:19.004Z,96.30
2023-03-13T19:39:47.154Z,96.60
2023-03-13T19:42:16.407Z,96.50
2023-03-13T19:44:44.827Z,96.60
2023-03-13T19:47:15.593Z,96.80
2023-03-13T19:49:45.545Z,96.90
2023-03-13T19:52:13.578Z,96.90
2023-03-13T19:54:41.617Z,96.90
2023-03-13T19:57:11.923Z,97.30
2023-03-13T19:59:41.473Z,97.30
2023-03-13T20:02:11.068Z,97.50
2023-03-13T20:04:39.746Z,97.50
2023-03-13T20:07:08.250Z,97.70
2023-03-13T20:09:36.828Z,98.00
2023-03-13T20:12:05.499Z,98.00
2023-03-13T20:14:34.020Z,98.20
2023-03-13T20:17:04.705Z,98.30
2023-03-13T20:19:33.134Z,98.50
2023-03-13T20:22:03.748Z,98.60
2023-03-13T20:24:33.650Z,98.60
2023-03-13T20:27:01.899Z,98.70
2023-03-13T20:29:30.043Z,98.70
2023-03-13T20:32:00.161Z,98.80
2023-03-13T20:34:29.766Z,99.00
2023-03-13T20:36:59.805Z,99.00
2023-03-13T20:39:28.378Z,99.00
2023-03-13T20:41:56.349Z,99.00
2023-03-13T20:44:24.524Z,99.20
2023-03-13T20:46:52.542Z,99.20
2023-03-13T20:49:20.533Z,99.30
2023-03-13T20:51:50.011Z,99.30
2023-03-13T20:54:18.134Z,99.40
2023-03-13T20:56:46.186Z,99.40
2023-03-13T20:59:14.120Z,99.40
2023-03-13T21:01:44.102Z,99.40
2023-03-13T21:04:12.198Z,99.80
2023-03-13T21:06:40.346Z,99.40
2023-03-13T21:09:09.815Z,99.50
2023-03-13T21:11:37.792Z,99.50
2023-03-13T21:14:06.034Z,99.50
2023-03-13T21:16:34.209Z,99.60
2023-03-13T21:19:02.309Z,99.60
2023-03-13T21:21:30.241Z,99.80
2023-03-13T21:23:58.468Z,99.60
2023-03-13T21:26:27.956Z,99.50
2023-03-13T21:28:55.881Z,99.50
2023-03-13T21:31:24.080Z,99.40
2023-03-13T21:33:52.286Z,99.50
2023-03-13T21:36:21.857Z,99.30
2023-03-13T21:38:51.180Z,99.40
2023-03-13T21:41:20.938Z,99.30
2023-03-13T21:43:50.405Z,99.40
2023-03-13T21:46:19.958Z,98.80
2023-03-13T21:48:48.265Z,98.80
2023-03-13T21:51:16.607Z,98.80
2023-03-13T21:53:45.151Z,98.60
2023-03-13T21:56:15.763Z,98.20
2023-03-13T21:58:45.410Z,98.00
2023-03-13T22:01:15.828Z,97.80
2023-03-13T22:03:43.951Z,98.10
2023-03-13T22:06:16.384Z,98.40
2023-03-13T22:08:44.477Z,97.10
2023-03-13T22:11:12.823Z,97.20
2023-03-13T22:13:41.632Z,97.00
2023-03-13T22:16:11.694Z,97.30
2023-03-13T22:18:42.238Z,98.50
2023-03-13T22:21:10.613Z,99.50
2023-03-13T22:23:38.690Z,99.90
2023-03-13T22:26:07.325Z,99.90
2023-03-13T22:28:35.275Z,99.90
2023-03-13T22:31:03.917Z,99.90
2023-03-13T22:33:32.262Z,99.90
2023-03-13T22:36:02.138Z,99.90
2023-03-13T22:38:30.373Z,99.90
2023-03-13T22:40:59.642Z,99.90
2023-03-13T22:43:28.038Z,99.90
2023-03-13T22:45:56.163Z,99.90
2023-03-13T22:48:24.389Z,99.90
2023-03-13T22:51:01.998Z,99.90
2023-03-13T22:53:30.572Z,99.90
2023-03-13T22:55:58.573Z,99.90
2023-03-13T22:58:26.951Z,99.90
2023-03-13T23:00:55.687Z,99.90
2023-03-13T23:03:24.355Z,99.90
2023-03-13T23:05:52.527Z,99.90
2023-03-13T23:08:22.837Z,99.90
2023-03-13T23:10:51.220Z,99.90
2023-03-13T23:13:19.316Z,99.90
2023-03-13T23:15:55.494Z,99.90
2023-03-13T23:18:25.059Z,99.90
2023-03-13T23:20:53.372Z,99.90
2023-03-13T23:23:22.852Z,99.90
2023-03-13T23:25:50.987Z,99.90
2023-03-13T23:28:18.881Z,99.90
2023-03-13T23:30:46.924Z,99.90
2023-03-13T23:33:14.906Z,99.90
2023-03-13T23:35:44.011Z,99.90
2023-03-13T23:38:12.390Z,99.90
2023-03-13T23:40:41.924Z,99.90
2023-03-13T23:43:09.835Z,99.90
2023-03-13T23:45:37.992Z,99.90
2023-03-13T23:48:06.450Z,99.90
2023-03-13T23:50:34.349Z,99.90
2023-03-13T23:53:02.452Z,99.90
2023-03-13T23:55:30.384Z,99.90
2023-03-13T23:57:59.891Z,99.90
